Time;durP1;ratioP1;P1;durP2;ratioP2;P2;SDS_P1;SDS_P2;PMS_P1;PMS_P2;Temp;Humidity;BMP_temperature;BMP_pressure;BME280_temperature;BME280_humidity;BME280_pressure;Samples;Min_cycle;Max_cycle;Signal;HPM_P1;HPM_P2
2021/10/01 00:01:55;;;;;;;20.72;10.88;;;;;;;8.21;69.69;101880.61;1748477;81;20989;-60
2021/10/01 00:04:23;;;;;;;21.70;12.33;;;;;;;8.22;70.17;101884.95;1752107;81;21530;-60
2021/10/01 00:06:52;;;;;;;19.50;12.53;;;;;;;8.25;70.11;101876.61;1750203;81;21531;-60
2021/10/01 00:09:19;;;;;;;15.48;10.72;;;;;;;8.31;69.55;101883.12;1745787;81;20984;-60
2021/10/01 00:11:51;;;;;;;20.95;11.12;;;;;;;8.35;69.56;101880.47;1747667;81;21495;-60
2021/10/01 00:14:25;;;;;;;21.87;12.18;;;;;;;8.38;69.80;101874.78;1749770;81;21042;-60
2021/10/01 00:16:54;;;;;;;19.40;11.25;;;;;;;8.41;69.54;101873.11;1750043;81;21474;-60
2021/10/01 00:19:22;;;;;;;23.05;12.13;;;;;;;8.43;69.71;101869.76;1745834;81;21488;-60
2021/10/01 00:21:50;;;;;;;22.40;12.33;;;;;;;8.42;69.68;101872.09;1747560;81;21572;-61
2021/10/01 00:24:17;;;;;;;19.73;11.40;;;;;;;8.40;69.63;101876.27;1746729;81;21435;-61
2021/10/01 00:26:44;;;;;;;17.73;10.55;;;;;;;8.40;69.79;101876.78;1748716;81;21561;-60
2021/10/01 00:29:11;;;;;;;17.32;11.40;;;;;;;8.37;69.96;101875.27;1751156;81;21467;-60
2021/10/01 00:31:38;;;;;;;23.15;11.65;;;;;;;8.33;69.98;101871.77;1746889;81;21045;-60
2021/10/01 00:34:06;;;;;;;18.30;11.03;;;;;;;8.30;70.24;101872.92;1748180;80;20977;-60
2021/10/01 00:36:33;;;;;;;17.77;11.20;;;;;;;8.26;70.52;101871.61;1746804;81;20969;-60
2021/10/01 00:39:05;;;;;;;17.10;10.43;;;;;;;8.21;70.58;101868.58;1748082;81;21577;-60
2021/10/01 00:41:33;;;;;;;20.55;10.70;;;;;;;8.19;70.76;101870.09;1746214;81;21506;-60
2021/10/01 00:44:00;;;;;;;16.50;11.08;;;;;;;8.22;70.62;101871.59;1749480;81;21051;-60
2021/10/01 00:46:27;;;;;;;21.68;10.85;;;;;;;8.21;70.74;101872.08;1747545;81;20973;-59
2021/10/01 00:48:54;;;;;;;18.00;11.28;;;;;;;8.20;70.84;101869.58;1748190;81;21040;-58
2021/10/01 00:51:24;;;;;;;16.95;11.33;;;;;;;8.18;71.09;101865.73;1747630;81;21498;-59
2021/10/01 00:53:53;;;;;;;15.32;10.23;;;;;;;8.19;71.28;101868.75;1749013;81;21177;-59
2021/10/01 00:56:21;;;;;;;18.35;10.98;;;;;;;8.19;71.75;101863.92;1741557;81;20952;-60
2021/10/01 00:58:48;;;;;;;20.17;12.60;;;;;;;8.14;72.07;101863.08;1740833;81;21439;-60
2021/10/01 01:01:15;;;;;;;17.35;10.50;;;;;;;8.05;72.35;101863.57;1739892;81;21519;-60
2021/10/01 01:03:52;;;;;;;17.87;11.10;;;;;;;8.00;72.60;101867.73;1737697;81;21028;-60
2021/10/01 01:06:48;;;;;;;21.73;11.25;;;;;;;7.98;72.81;101867.90;1737183;81;21930;-61
2021/10/01 01:09:42;;;;;;;20.43;11.73;;;;;;;7.98;72.87;101865.23;1740307;81;20961;-59
2021/10/01 01:12:43;;;;;;;21.70;11.73;;;;;;;8.00;72.90;101861.88;1740057;81;21549;-60
2021/10/01 01:15:30;;;;;;;25.17;11.93;;;;;;;8.00;72.86;101861.05;1739527;81;21570;-58
2021/10/01 01:18:05;;;;;;;21.15;11.90;;;;;;;8.00;72.83;101856.54;1739978;81;21024;-59
2021/10/01 01:20:40;;;;;;;18.60;11.75;;;;;;;8.01;72.80;101859.55;1738205;81;21954;-59
2021/10/01 01:23:47;;;;;;;20.37;11.90;;;;;;;8.00;72.92;101853.05;1737430;81;20972;-60
2021/10/01 01:26:56;;;;;;;35.80;11.85;;;;;;;8.03;72.67;101843.36;1741136;81;20977;-60
2021/10/01 01:29:41;;;;;;;18.12;10.95;;;;;;;8.05;72.49;101846.69;1742064;81;21467;-60
2021/10/01 01:32:21;;;;;;;19.00;11.30;;;;;;;8.09;72.33;101848.04;1740094;81;21546;-61
2021/10/01 01:34:53;;;;;;;21.23;12.05;;;;;;;8.02;72.34;101851.03;1740266;81;21152;-59
2021/10/01 01:37:31;;;;;;;19.87;11.90;;;;;;;7.95;72.34;101844.67;1740298;81;21031;-60
2021/10/01 01:39:58;;;;;;;16.00;10.70;;;;;;;7.92;72.39;101847.67;1742455;81;20957;-60
2021/10/01 01:42:26;;;;;;;20.23;11.25;;;;;;;7.94;72.45;101845.19;1740171;81;21048;-60
2021/10/01 01:44:53;;;;;;;16.42;10.50;;;;;;;7.97;72.32;101847.52;1697659;81;21015;-60
2021/10/01 01:47:19;;;;;;;17.90;11.25;;;;;;;7.94;72.38;101849.70;1737160;81;21153;-59
2021/10/01 01:49:46;;;;;;;15.55;10.53;;;;;;;7.92;72.33;101848.53;1740038;81;20983;-60
2021/10/01 01:52:14;;;;;;;16.60;10.98;;;;;;;7.94;72.52;101852.38;1741544;81;20925;-61
2021/10/01 01:54:41;;;;;;;17.42;11.25;;;;;;;7.94;72.54;101851.86;1723395;80;20964;-60
2021/10/01 01:57:07;;;;;;;16.77;10.70;;;;;;;7.97;72.55;101850.70;1748574;81;21005;-60
2021/10/01 01:59:35;;;;;;;23.18;11.05;;;;;;;8.03;72.50;101847.37;1748540;81;21732;-60
2021/10/01 02:02:04;;;;;;;15.53;10.08;;;;;;;8.08;72.34;101854.37;1748094;81;20988;-60
2021/10/01 02:04:31;;;;;;;18.35;10.35;;;;;;;8.10;72.17;101853.72;1748277;81;20912;-60
2021/10/01 02:06:58;;;;;;;19.60;10.68;;;;;;;8.12;72.11;101857.05;1748582;80;21505;-60
2021/10/01 02:09:25;;;;;;;19.35;9.93;;;;;;;8.13;72.05;101856.06;1746694;81;21467;-60
2021/10/01 02:11:52;;;;;;;18.25;10.05;;;;;;;8.11;71.99;101858.55;1727326;81;21161;-60
2021/10/01 02:14:23;;;;;;;17.35;9.88;;;;;;;8.14;72.03;101858.22;1745763;81;21438;-62
2021/10/01 02:16:53;;;;;;;14.60;9.78;;;;;;;8.20;71.82;101858.89;1732812;81;20977;-60
2021/10/01 02:19:20;;;;;;;17.30;10.00;;;;;;;8.24;71.75;101861.56;1750435;81;21365;-60
2021/10/01 02:21:48;;;;;;;21.60;11.33;;;;;;;8.26;71.54;101854.24;1748800;81;20965;-60
2021/10/01 02:24:16;;;;;;;19.37;10.43;;;;;;;8.25;71.30;101856.56;1729669;81;21155;-60
2021/10/01 02:26:53;;;;;;;25.15;12.07;;;;;;;8.23;71.08;101859.92;1748586;81;20944;-60
2021/10/01 02:29:31;;;;;;;19.32;10.85;;;;;;;8.18;71.08;101853.71;1748114;81;20889;-61
2021/10/01 02:32:08;;;;;;;15.78;9.75;;;;;;;8.13;71.22;101859.25;1726524;81;20932;-60
2021/10/01 02:34:44;;;;;;;18.82;10.65;;;;;;;8.11;71.50;101869.23;1747030;81;20984;-59
2021/10/01 02:37:13;;;;;;;22.73;10.93;;;;;;;8.10;71.67;101863.07;1748292;81;21164;-60
2021/10/01 02:39:43;;;;;;;22.52;12.47;;;;;;;8.11;71.73;101861.22;1747304;81;20960;-59
2021/10/01 02:42:10;;;;;;;16.17;10.93;;;;;;;8.09;71.80;101866.73;1726184;81;21558;-59
2021/10/01 02:44:39;;;;;;;17.90;11.70;;;;;;;8.10;71.82;101865.74;1745503;81;20901;-61
2021/10/01 02:47:07;;;;;;;18.30;12.85;;;;;;;8.11;71.96;101867.91;1734048;81;21431;-61
2021/10/01 02:49:34;;;;;;;20.80;11.90;;;;;;;8.10;72.13;101868.89;1747709;81;21012;-59
2021/10/01 02:52:13;;;;;;;20.35;11.60;;;;;;;8.13;71.81;101868.08;1727407;81;20941;-60
2021/10/01 02:54:45;;;;;;;19.02;12.13;;;;;;;8.18;70.99;101871.08;1734760;80;20972;-63
2021/10/01 02:57:17;;;;;;;24.20;14.07;;;;;;;8.22;70.14;101870.27;1747720;81;21538;-63
2021/10/01 02:59:46;;;;;;;24.47;13.60;;;;;;;8.21;69.82;101871.25;1749724;81;20921;-62
2021/10/01 03:02:13;;;;;;;21.87;12.15;;;;;;;8.18;69.13;101874.26;1750194;81;21138;-59
2021/10/01 03:04:39;;;;;;;26.00;12.18;;;;;;;8.14;68.24;101877.78;1746092;81;21712;-61
2021/10/01 03:07:06;;;;;;;20.65;11.80;;;;;;;8.09;68.53;101880.09;1748373;81;20908;-59
2021/10/01 03:09:35;;;;;;;20.37;11.80;;;;;;;8.03;68.68;101882.09;1748066;81;20925;-62
2021/10/01 03:12:04;;;;;;;22.32;12.45;;;;;;;8.00;68.77;101881.09;1747954;81;20928;-61
2021/10/01 03:14:31;;;;;;;21.55;12.03;;;;;;;7.96;68.91;101879.23;1747524;81;21827;-62
2021/10/01 03:16:58;;;;;;;27.35;11.83;;;;;;;7.95;70.01;101890.93;1746633;81;21527;-64
2021/10/01 03:19:26;;;;;;;23.02;12.05;;;;;;;7.95;69.46;101891.41;1746292;81;20976;-64
2021/10/01 03:21:56;;;;;;;24.92;12.73;;;;;;;7.94;68.15;101891.09;1748610;81;20971;-63
2021/10/01 03:24:25;;;;;;;22.27;12.80;;;;;;;7.89;66.83;101881.73;1749266;81;20881;-62
2021/10/01 03:26:51;;;;;;;25.43;12.65;;;;;;;7.84;66.06;101885.89;1748926;81;21112;-63
2021/10/01 03:29:19;;;;;;;31.50;12.68;;;;;;;7.77;65.52;101891.53;1747023;81;20904;-62
2021/10/01 03:31:47;;;;;;;26.75;12.78;;;;;;;7.71;65.34;101889.01;1747929;81;20979;-63
2021/10/01 03:34:13;;;;;;;22.25;12.75;;;;;;;7.63;64.93;101893.83;1746000;81;21004;-63
2021/10/01 03:36:40;;;;;;;27.93;13.22;;;;;;;7.57;64.82;101894.95;1748769;81;21057;-61
2021/10/01 03:39:07;;;;;;;33.65;13.55;;;;;;;7.50;64.62;101896.12;1748505;81;21123;-61
2021/10/01 03:41:35;;;;;;;34.27;13.58;;;;;;;7.44;64.56;101895.42;1748379;81;21493;-62
2021/10/01 03:44:04;;;;;;;28.80;14.20;;;;;;;7.36;64.64;101894.39;1748457;81;20952;-61
2021/10/01 03:46:31;;;;;;;19.10;11.35;;;;;;;7.30;66.22;101897.70;1745484;81;20999;-61
2021/10/01 03:48:57;;;;;;;18.62;10.75;;;;;;;7.30;68.29;101899.52;1751664;81;20955;-62
2021/10/01 03:51:24;;;;;;;18.05;11.05;;;;;;;7.36;70.12;101900.20;1747448;81;21155;-62
2021/10/01 03:53:53;;;;;;;21.60;11.80;;;;;;;7.46;71.91;101902.25;1747946;81;21030;-63
2021/10/01 03:56:20;;;;;;;;;;;;;;;7.53;72.94;101900.63;1750757;80;21019;-63
2021/10/01 03:58:49;;;;;;;22.50;12.20;;;;;;;7.62;73.42;101906.00;1745627;80;20091;-64
2021/10/01 04:01:16;;;;;;;21.20;11.68;;;;;;;7.66;73.58;101910.03;1746170;81;21087;-64
2021/10/01 04:03:43;;;;;;;21.45;11.80;;;;;;;7.69;73.80;101907.03;1748806;81;21270;-64
2021/10/01 04:06:09;;;;;;;20.75;12.28;;;;;;;7.76;73.91;101903.20;1747978;81;20992;-63
2021/10/01 04:08:36;;;;;;;21.90;12.13;;;;;;;7.82;73.92;101906.58;1744580;81;21328;-64
2021/10/01 04:11:03;;;;;;;20.68;11.40;;;;;;;7.86;73.94;101910.09;1746027;81;20960;-64
2021/10/01 04:13:29;;;;;;;19.65;11.33;;;;;;;7.91;73.97;101910.11;1747713;81;21079;-62
2021/10/01 04:15:56;;;;;;;18.98;11.57;;;;;;;7.95;73.93;101914.11;1747838;81;21184;-64
2021/10/01 04:18:25;;;;;;;22.30;12.25;;;;;;;7.98;73.96;101909.30;1713191;83;21026;-63
2021/10/01 04:20:51;;;;;;;18.85;11.68;;;;;;;8.03;73.82;101910.95;1706964;83;21054;-64
2021/10/01 04:23:18;;;;;;;34.53;13.58;;;;;;;8.07;73.35;101906.97;1704990;83;20972;-63
2021/10/01 04:25:51;;;;;;;22.95;12.10;;;;;;;8.19;72.39;101912.00;1708606;83;21558;-64
2021/10/01 04:28:20;;;;;;;20.57;12.13;;;;;;;8.42;72.28;101906.34;1707871;83;21592;-63
2021/10/01 04:30:51;;;;;;;18.82;11.25;;;;;;;9.15;71.67;101911.82;1706165;83;21086;-64
2021/10/01 04:33:21;;;;;;;17.02;11.18;;;;;;;10.23;70.09;101913.50;1707018;83;21038;-63
2021/10/01 04:35:49;;;;;;;18.57;11.22;;;;;;;11.37;67.36;101901.42;1707264;83;21517;-63
2021/10/01 04:38:18;;;;;;;18.55;11.03;;;;;;;12.51;62.99;101903.52;1706723;83;21545;-64
2021/10/01 04:40:45;;;;;;;15.25;11.00;;;;;;;13.59;59.14;101901.89;1705878;83;21128;-64
2021/10/01 04:43:11;;;;;;;20.30;11.85;;;;;;;14.57;55.95;101901.98;1707636;83;21651;-64
2021/10/01 04:45:39;;;;;;;21.05;10.63;;;;;;;15.33;53.35;101899.84;1711098;82;20975;-64
2021/10/01 04:48:06;;;;;;;21.07;10.20;;;;;;;16.02;51.36;101900.16;1707354;83;21462;-65
2021/10/01 04:50:34;;;;;;;24.20;12.07;;;;;;;16.80;48.69;101905.75;1708403;83;21003;-64
2021/10/01 04:53:00;;;;;;;17.92;11.43;;;;;;;17.55;45.88;101904.77;1708022;83;21106;-65
2021/10/01 04:55:28;;;;;;;21.05;10.00;;;;;;;18.27;44.17;101914.02;1697606;82;20941;-65
2021/10/01 04:57:55;;;;;;;14.83;9.75;;;;;;;18.92;43.08;101918.64;1683514;84;21028;-64
2021/10/01 05:00:40;;;;;;;14.05;9.43;;;;;;;19.47;41.83;101916.02;1683769;84;20996;-64
2021/10/01 05:03:17;;;;;;;15.83;10.15;;;;;;;19.87;41.02;101915.20;1612145;88;21065;-64
2021/10/01 05:05:48;;;;;;;17.52;9.95;;;;;;;20.41;39.57;101919.43;1680519;84;21135;-64
2021/10/01 05:08:33;;;;;;;18.73;10.35;;;;;;;20.88;38.71;101913.66;1684406;84;21041;-65
2021/10/01 05:11:19;;;;;;;16.05;10.13;;;;;;;21.30;37.21;101920.50;1684672;84;20980;-64
2021/10/01 05:14:05;;;;;;;17.20;10.85;;;;;;;21.63;36.85;101916.85;1684886;84;21519;-65
2021/10/01 05:16:51;;;;;;;16.02;10.00;;;;;;;22.26;35.61;101925.13;1684930;84;20921;-67
2021/10/01 05:19:37;;;;;;;13.83;9.83;;;;;;;22.60;34.65;101927.63;1686311;84;22986;-65
2021/10/01 05:22:08;;;;;;;16.25;9.85;;;;;;;22.74;34.11;101932.93;1673744;84;20953;-63
2021/10/01 05:24:35;;;;;;;13.88;9.58;;;;;;;22.86;34.11;101933.55;1685916;84;21519;-63
2021/10/01 05:27:03;;;;;;;17.25;10.48;;;;;;;23.12;33.31;101932.38;1684549;84;21007;-63
2021/10/01 05:29:30;;;;;;;12.82;9.63;;;;;;;23.03;33.42;101940.23;1681753;84;20964;-65
2021/10/01 05:31:57;;;;;;;24.37;10.35;;;;;;;22.87;34.14;101939.30;1684799;84;21530;-63
2021/10/01 05:34:23;;;;;;;17.90;9.90;;;;;;;23.16;34.01;101944.45;1684116;84;21015;-64
2021/10/01 05:36:50;;;;;;;22.37;10.05;;;;;;;23.72;33.47;101945.23;1684751;84;20993;-63
2021/10/01 05:39:16;;;;;;;22.85;11.97;;;;;;;24.37;32.29;101944.02;1684856;84;20969;-64
2021/10/01 05:41:45;;;;;;;22.22;11.53;;;;;;;24.74;31.65;101941.01;1682184;84;21021;-65
2021/10/01 05:44:11;;;;;;;21.25;12.88;;;;;;;24.86;31.79;101939.91;1683129;84;21128;-66
2021/10/01 05:46:42;;;;;;;18.75;13.20;;;;;;;25.27;31.00;101936.49;1684739;84;20913;-64
2021/10/01 05:49:36;;;;;;;23.12;14.20;;;;;;;25.66;30.43;101944.05;1685451;84;20984;-64
2021/10/01 05:52:37;;;;;;;13.43;9.97;;;;;;;26.08;30.00;101948.78;1686992;84;21063;-65
2021/10/01 05:55:12;;;;;;;21.93;9.88;;;;;;;26.62;28.83;101947.52;1685640;83;20977;-65
2021/10/01 05:57:57;;;;;;;14.35;8.68;;;;;;;26.71;27.86;101949.96;1692304;84;21133;-64
2021/10/01 06:00:30;;;;;;;13.48;8.50;;;;;;;26.11;28.17;101951.52;1694837;84;21047;-65
2021/10/01 06:02:57;;;;;;;15.95;8.58;;;;;;;25.50;28.88;101956.19;1692500;84;21027;-64
2021/10/01 06:05:23;;;;;;;17.15;8.55;;;;;;;24.74;29.86;101953.91;1690347;84;21770;-65
2021/10/01 06:07:51;;;;;;;15.15;8.85;;;;;;;24.30;31.00;101953.31;1691637;84;21067;-65
2021/10/01 06:10:20;;;;;;;13.53;9.53;;;;;;;24.62;31.12;101952.81;1692680;84;21000;-64
2021/10/01 06:12:46;;;;;;;14.43;8.30;;;;;;;25.29;30.27;101947.19;1692400;84;21008;-65
2021/10/01 06:15:13;;;;;;;15.98;8.80;;;;;;;26.05;29.07;101949.34;1692525;84;21573;-65
2021/10/01 06:17:42;;;;;;;12.13;8.35;;;;;;;26.52;27.84;101943.77;1692101;84;21099;-64
2021/10/01 06:20:11;;;;;;;14.05;8.50;;;;;;;26.22;28.32;101955.28;1691176;84;21007;-65
2021/10/01 06:22:38;;;;;;;13.18;8.70;;;;;;;26.09;28.42;101957.83;1690142;84;21060;-65
2021/10/01 06:25:06;;;;;;;14.28;7.95;;;;;;;26.09;28.10;101957.83;1690754;84;21008;-65
2021/10/01 06:27:33;;;;;;;14.73;7.87;;;;;;;26.11;28.11;101954.27;1695443;84;20945;-64
2021/10/01 06:29:59;;;;;;;14.85;9.15;;;;;;;26.13;28.23;101965.21;1692605;84;21522;-65
2021/10/01 06:32:32;;;;;;;18.12;11.10;;;;;;;26.32;28.13;101958.48;1692372;84;20996;-64
2021/10/01 06:34:54;;;;;;;14.98;10.55;;;;;;;26.53;27.75;101958.31;1692200;84;21843;-65
2021/10/01 06:37:21;;;;;;;14.35;8.80;;;;;;;26.54;27.54;101959.41;1692249;84;20976;-65
2021/10/01 06:39:48;;;;;;;12.47;8.63;;;;;;;26.41;27.13;101957.31;1692547;84;21506;-65
2021/10/01 06:42:17;;;;;;;16.62;8.88;;;;;;;25.93;27.53;101962.03;1689890;84;20996;-64
2021/10/01 06:44:46;;;;;;;12.88;8.78;;;;;;;25.73;27.68;101960.20;1691584;84;21581;-65
2021/10/01 06:47:17;;;;;;;11.00;7.90;;;;;;;25.76;28.01;101960.20;1691652;83;21897;-64
2021/10/01 06:49:51;;;;;;;12.63;8.20;;;;;;;25.77;27.87;101960.48;1691669;84;20908;-64
2021/10/01 07:36:32;;;;;;;16.37;7.83;;;;;;;16.80;40.59;101966.67;1748403;81;21506;-64
2021/10/01 08:19:48;;;;;;;9.90;6.72;;;;;;;15.62;41.85;101957.95;1746460;81;21038;-65
2021/10/01 08:22:16;;;;;;;10.40;6.20;;;;;;;15.62;41.72;101958.46;1746880;81;21044;-64
2021/10/01 08:24:42;;;;;;;14.25;6.15;;;;;;;15.59;41.88;101962.41;1751426;81;20873;-65
2021/10/01 08:27:08;;;;;;;10.00;5.87;;;;;;;15.57;41.00;101962.63;1748701;81;21502;-64
2021/10/01 08:29:36;;;;;;;10.00;6.00;;;;;;;15.38;40.25;101963.52;1748357;81;21203;-64
2021/10/01 08:32:04;;;;;;;14.28;7.10;;;;;;;15.20;41.34;101960.95;1745783;81;21003;-65
2021/10/01 08:34:34;;;;;;;10.55;6.12;;;;;;;15.23;42.58;101955.66;1747187;81;21142;-65
2021/10/01 08:37:01;;;;;;;10.78;5.75;;;;;;;15.23;42.45;101954.30;1747447;81;21459;-64
2021/10/01 08:39:27;;;;;;;6.80;4.90;;;;;;;15.23;40.51;101954.30;1748929;81;21005;-66
2021/10/01 08:41:57;;;;;;;17.02;5.80;;;;;;;15.28;41.02;101951.78;1747932;81;20925;-65
2021/10/01 08:44:29;;;;;;;11.10;5.37;;;;;;;15.37;39.88;101947.84;1745326;81;21066;-66
2021/10/01 08:46:57;;;;;;;8.90;5.75;;;;;;;15.39;40.27;101951.14;1746858;81;21162;-63
2021/10/01 08:49:23;;;;;;;8.88;6.00;;;;;;;15.54;40.59;101946.84;1726107;81;20940;-66
2021/10/01 08:51:50;;;;;;;7.53;4.70;;;;;;;15.66;39.93;101938.89;1748530;81;20929;-65
2021/10/01 08:54:19;;;;;;;9.53;4.97;;;;;;;15.62;38.75;101943.09;1748651;81;21550;-64
2021/10/01 08:56:45;;;;;;;5.53;4.25;;;;;;;15.59;37.45;101946.19;1743637;81;20964;-64
2021/10/01 08:59:12;;;;;;;8.95;4.97;;;;;;;15.42;37.90;101939.09;1738388;81;21831;-65
2021/10/01 09:01:38;;;;;;;14.00;5.37;;;;;;;15.34;39.14;101943.36;1739339;81;21499;-67
2021/10/01 09:04:07;;;;;;;15.03;5.05;;;;;;;15.34;39.63;101943.36;1740214;81;20969;-65
2021/10/01 09:06:33;;;;;;;6.60;3.60;;;;;;;15.31;39.72;101939.73;1742980;81;21012;-65
2021/10/01 09:09:05;;;;;;;8.80;3.80;;;;;;;15.24;36.80;101933.02;1741013;81;21060;-65
2021/10/01 09:11:38;;;;;;;6.25;3.40;;;;;;;15.12;36.63;101938.23;1741885;81;21941;-65
2021/10/01 09:14:08;;;;;;;5.53;4.70;;;;;;;15.04;36.72;101931.16;1739991;81;20879;-65
2021/10/01 09:16:37;;;;;;;10.43;5.22;;;;;;;14.99;37.33;101928.27;1740284;81;20854;-64
2021/10/01 09:19:06;;;;;;;11.97;5.20;;;;;;;14.85;39.30;101934.71;1737170;81;20936;-64
2021/10/01 09:21:45;;;;;;;8.45;5.47;;;;;;;14.78;39.56;101929.33;1739408;81;20980;-65
2021/10/01 09:24:18;;;;;;;7.78;4.80;;;;;;;14.74;38.23;101936.68;1689617;84;21137;-64
2021/10/01 09:26:55;;;;;;;6.58;4.42;;;;;;;14.68;38.13;101927.04;1739977;81;20949;-65
2021/10/01 09:29:31;;;;;;;7.50;4.10;;;;;;;14.64;38.21;101926.31;1740060;81;21601;-65
2021/10/01 09:32:08;;;;;;;12.10;3.83;;;;;;;14.61;37.78;101930.75;1740269;81;21028;-65
2021/10/01 09:34:38;;;;;;;6.83;4.53;;;;;;;14.57;38.10;101927.61;1739612;81;20974;-65
2021/10/01 09:37:10;;;;;;;8.88;4.65;;;;;;;14.65;37.28;101923.41;1740451;81;21182;-66
2021/10/01 09:39:45;;;;;;;8.45;4.30;;;;;;;14.66;38.65;101916.12;1739997;81;20972;-65
2021/10/01 09:42:17;;;;;;;4.90;3.45;;;;;;;14.51;37.47;101925.22;1740206;81;21460;-65
2021/10/01 09:44:48;;;;;;;7.28;4.42;;;;;;;14.43;37.57;101925.94;1738291;81;21475;-64
2021/10/01 09:47:16;;;;;;;10.13;3.72;;;;;;;14.43;36.24;101923.23;1739614;81;21554;-66
2021/10/01 09:49:43;;;;;;;8.28;2.87;;;;;;;14.35;36.46;101924.27;1740417;81;21841;-65
2021/10/01 09:52:11;;;;;;;10.20;3.35;;;;;;;14.34;36.31;101922.11;1740103;81;21060;-65
2021/10/01 09:54:38;;;;;;;8.13;2.80;;;;;;;14.39;36.83;101926.06;1738176;81;21020;-63
2021/10/01 09:57:06;;;;;;;5.20;2.98;;;;;;;14.48;36.85;101923.47;1741691;81;21494;-65
2021/10/01 09:59:36;;;;;;;6.58;3.35;;;;;;;14.60;36.56;101923.68;1747726;81;21553;-65
2021/10/01 10:02:10;;;;;;;6.80;2.83;;;;;;;14.65;36.10;101922.06;1747624;81;21279;-65
2021/10/01 10:04:54;;;;;;;5.50;3.00;;;;;;;14.60;36.43;101916.41;1749238;81;20880;-65
2021/10/01 10:07:26;;;;;;;7.37;3.05;;;;;;;14.61;36.55;101924.00;1745388;81;20877;-64
2021/10/01 10:09:57;;;;;;;7.72;3.05;;;;;;;14.64;36.18;101927.66;1748909;81;21019;-64
2021/10/01 10:12:41;;;;;;;6.95;3.30;;;;;;;14.67;35.68;101918.63;1748045;81;21514;-65
2021/10/01 10:15:13;;;;;;;9.83;3.25;;;;;;;14.69;35.11;101916.56;1747930;81;21125;-64
2021/10/01 10:17:50;;;;;;;4.20;2.60;;;;;;;14.68;35.03;101920.82;1745344;81;20926;-65
2021/10/01 10:20:18;;;;;;;5.87;2.92;;;;;;;14.60;35.03;101923.16;1746169;81;21529;-66
2021/10/01 10:22:46;;;;;;;5.08;3.02;;;;;;;14.54;35.04;101918.59;1749699;81;21047;-65
2021/10/01 10:25:12;;;;;;;4.05;2.58;;;;;;;14.44;34.99;101914.97;1748439;81;21016;-64
2021/10/01 10:27:39;;;;;;;5.80;2.70;;;;;;;14.32;34.85;101914.72;1746385;81;21183;-64
2021/10/01 10:30:09;;;;;;;4.15;2.72;;;;;;;14.22;35.41;101913.47;1746353;81;21474;-65
2021/10/01 10:32:35;;;;;;;2.85;2.17;;;;;;;14.15;35.81;101910.78;1728387;81;20936;-65
2021/10/01 10:35:06;;;;;;;9.18;2.98;;;;;;;14.08;36.09;101913.44;1747749;81;21542;-64
2021/10/01 10:37:44;;;;;;;6.00;2.60;;;;;;;14.09;35.92;101918.30;1748697;81;21047;-64
2021/10/01 10:40:15;;;;;;;3.45;2.33;;;;;;;14.11;35.96;101916.25;1747728;81;21802;-64
2021/10/01 10:42:47;;;;;;;4.40;2.62;;;;;;;14.15;36.06;101902.69;1745065;81;20948;-64
2021/10/01 10:45:18;;;;;;;5.72;2.87;;;;;;;14.20;35.98;101907.75;1746393;81;21042;-66
2021/10/01 10:47:59;;;;;;;4.03;2.80;;;;;;;14.24;36.59;101893.36;1747494;81;20956;-64
2021/10/01 10:50:29;;;;;;;7.53;2.62;;;;;;;14.30;35.93;101901.15;1748914;81;20913;-65
2021/10/01 10:53:12;;;;;;;4.47;2.33;;;;;;;14.36;36.33;101900.31;1748489;81;21115;-64
2021/10/01 10:55:58;;;;;;;7.15;2.42;;;;;;;14.39;36.23;101898.55;1751336;81;21019;-64
2021/10/01 10:58:33;;;;;;;3.47;2.65;;;;;;;14.45;35.72;101913.09;1748288;80;20988;-65
2021/10/01 11:01:21;;;;;;;4.22;2.75;;;;;;;14.43;35.86;101897.61;1750011;81;20932;-65
2021/10/01 11:03:47;;;;;;;4.95;2.90;;;;;;;14.43;36.12;101893.06;1735887;81;21048;-65
2021/10/01 11:06:14;;;;;;;7.85;2.55;;;;;;;14.44;35.88;101898.78;1747178;81;21118;-65
2021/10/01 11:08:45;;;;;;;8.38;2.62;;;;;;;14.37;36.11;101890.67;1746013;81;20877;-64
2021/10/01 11:11:36;;;;;;;8.00;2.90;;;;;;;14.33;36.59;101886.72;1749523;81;21062;-67
2021/10/01 11:14:22;;;;;;;5.55;2.95;;;;;;;14.40;36.70;101888.58;1747061;81;21549;-65
2021/10/01 11:16:59;;;;;;;6.05;3.45;;;;;;;14.45;35.74;101884.23;1747518;81;20980;-64
2021/10/01 11:19:49;;;;;;;5.37;3.47;;;;;;;14.42;36.02;101878.44;1747649;81;21933;-67
2021/10/01 11:22:30;;;;;;;9.23;3.60;;;;;;;14.37;36.57;101875.02;1751345;81;20851;-67
2021/10/01 11:25:13;;;;;;;11.97;3.70;;;;;;;14.42;36.08;101877.91;1750259;81;21258;-65
2021/10/01 11:27:57;;;;;;;9.73;3.50;;;;;;;14.49;35.82;101873.87;1744970;81;21419;-64
2021/10/01 11:30:26;;;;;;;5.42;3.55;;;;;;;14.56;35.26;101867.96;1746668;81;21569;-65
2021/10/01 11:32:53;;;;;;;7.20;2.95;;;;;;;14.59;35.72;101866.69;1746191;81;21784;-64
2021/10/01 11:35:20;;;;;;;10.35;4.05;;;;;;;14.64;36.21;101877.20;1747454;81;21005;-66
2021/10/01 11:37:49;;;;;;;7.42;3.50;;;;;;;14.65;35.76;101872.12;1749717;81;20873;-65
2021/10/01 11:40:27;;;;;;;11.60;3.87;;;;;;;14.56;36.32;101865.27;1748121;81;20921;-65
2021/10/01 11:42:56;;;;;;;13.45;3.75;;;;;;;14.48;36.49;101870.33;1748434;81;20992;-64
2021/10/01 11:45:35;;;;;;;6.33;3.90;;;;;;;14.37;36.96;101869.09;1749369;81;21124;-66
2021/10/01 11:48:08;;;;;;;8.63;3.92;;;;;;;14.34;37.22;101857.36;1746488;81;21557;-65
2021/10/01 11:50:45;;;;;;;7.40;3.45;;;;;;;14.35;37.13;101856.34;1747135;81;21423;-65
2021/10/01 11:53:22;;;;;;;11.00;3.92;;;;;;;14.34;37.47;101858.71;1745746;81;21014;-64
2021/10/01 11:56:03;;;;;;;6.28;3.65;;;;;;;14.36;37.97;101851.77;1745453;81;21455;-64
2021/10/01 11:58:34;;;;;;;8.18;4.00;;;;;;;14.42;38.04;101859.02;1726458;81;21007;-64
2021/10/01 12:01:17;;;;;;;;;;;;;;;14.47;37.54;101853.84;1750867;81;20944;-65
2021/10/01 12:03:57;;;;;;;5.75;3.60;;;;;;;14.47;37.51;101848.45;1747946;80;20108;-66
2021/10/01 12:06:27;;;;;;;7.40;4.40;;;;;;;14.44;37.74;101853.41;1750580;81;21458;-64
2021/10/01 12:09:00;;;;;;;10.75;4.47;;;;;;;14.48;37.93;101843.87;1746532;80;20964;-65
2021/10/01 12:11:30;;;;;;;8.30;4.33;;;;;;;14.53;38.16;101845.41;1748511;81;21438;-64
2021/10/01 12:14:10;;;;;;;7.15;4.33;;;;;;;14.51;37.67;101844.27;1749883;81;20913;-65
2021/10/01 12:16:39;;;;;;;8.98;4.28;;;;;;;14.44;38.06;101844.82;1747845;80;21490;-65
2021/10/01 12:19:08;;;;;;;7.67;4.00;;;;;;;14.37;38.14;101842.11;1748766;81;20960;-64
2021/10/01 12:21:36;;;;;;;6.95;4.12;;;;;;;14.34;38.66;101839.83;1749585;81;21001;-65
2021/10/01 12:24:11;;;;;;;7.20;3.55;;;;;;;14.37;38.63;101838.06;1746734;81;21212;-66
2021/10/01 12:26:44;;;;;;;6.42;3.92;;;;;;;14.39;38.81;101835.16;1748657;81;20877;-65
2021/10/01 12:29:19;;;;;;;10.98;4.10;;;;;;;14.42;38.99;101840.66;1749566;81;21530;-66
2021/10/01 12:31:52;;;;;;;7.35;4.25;;;;;;;14.44;39.00;101835.88;1747199;81;20980;-64
2021/10/01 12:34:23;;;;;;;7.78;3.80;;;;;;;14.47;38.68;101832.76;1746632;81;21581;-65
2021/10/01 12:37:02;;;;;;;6.28;4.10;;;;;;;14.47;39.11;101820.63;1746731;80;21528;-65
2021/10/01 12:39:31;;;;;;;8.15;4.37;;;;;;;14.53;39.16;101827.38;1746920;81;21483;-65
2021/10/01 12:42:00;;;;;;;9.73;4.25;;;;;;;14.58;38.95;101829.44;1746282;81;21043;-66
2021/10/01 12:44:27;;;;;;;10.78;4.08;;;;;;;14.63;38.82;101822.91;1748823;81;20984;-67
2021/10/01 12:46:55;;;;;;;8.15;4.17;;;;;;;14.67;38.86;101822.81;1749038;81;20980;-65
2021/10/01 12:49:30;;;;;;;13.68;4.45;;;;;;;14.69;38.92;101817.20;1747481;81;21150;-64
2021/10/01 12:52:12;;;;;;;8.05;3.87;;;;;;;14.70;39.12;101826.44;1748441;81;21032;-64
2021/10/01 12:54:49;;;;;;;8.73;5.33;;;;;;;14.67;38.97;101821.45;1748838;80;20956;-64
2021/10/01 12:57:46;;;;;;;11.78;5.75;;;;;;;14.66;38.60;101822.52;1751856;81;20992;-63
2021/10/01 13:00:25;;;;;;;12.35;5.62;;;;;;;14.63;38.66;101825.61;1748505;81;21095;-65
2021/10/01 13:03:05;;;;;;;14.15;5.33;;;;;;;14.62;39.40;101819.92;1740459;81;21122;-63
2021/10/01 13:05:40;;;;;;;15.50;4.55;;;;;;;14.67;39.35;101817.94;1748768;81;21004;-65